sensor_id;sensor_type;location;lat;lon;timestamp;P1;durP1;ratioP1;P2;durP2;ratioP2
75603;SDS011;64187;51.010;13.792;2024-02-14T00:04:07;7.68;;;4.25;;
75603;SDS011;64187;51.010;13.792;2024-02-14T00:09:06;6.63;;;4.13;;
75603;SDS011;64187;51.010;13.792;2024-02-14T00:14:05;7.55;;;3.55;;
75603;SDS011;64187;51.010;13.792;2024-02-14T00:19:05;7.25;;;3.67;;
75603;SDS011;64187;51.010;13.792;2024-02-14T00:24:05;5.65;;;3.47;;
75603;SDS011;64187;51.010;13.792;2024-02-14T00:29:04;4.90;;;3.15;;
75603;SDS011;64187;51.010;13.792;2024-02-14T00:34:03;5.72;;;3.38;;
75603;SDS011;64187;51.010;13.792;2024-02-14T00:39:03;5.47;;;3.70;;
75603;SDS011;64187;51.010;13.792;2024-02-14T00:44:02;5.93;;;3.33;;
75603;SDS011;64187;51.010;13.792;2024-02-14T00:49:01;5.95;;;3.50;;
75603;SDS011;64187;51.010;13.792;2024-02-14T00:54:01;5.57;;;3.17;;
75603;SDS011;64187;51.010;13.792;2024-02-14T00:59:00;7.40;;;3.60;;
75603;SDS011;64187;51.010;13.792;2024-02-14T01:03:59;6.63;;;3.13;;
75603;SDS011;64187;51.010;13.792;2024-02-14T01:08:58;4.68;;;3.05;;
75603;SDS011;64187;51.010;13.792;2024-02-14T01:13:57;5.93;;;3.05;;
75603;SDS011;64187;51.010;13.792;2024-02-14T01:18:56;8.00;;;3.22;;
75603;SDS011;64187;51.010;13.792;2024-02-14T01:23:55;5.28;;;2.95;;
75603;SDS011;64187;51.010;13.792;2024-02-14T01:28:54;5.78;;;2.92;;
75603;SDS011;64187;51.010;13.792;2024-02-14T01:33:53;5.25;;;3.70;;
75603;SDS011;64187;51.010;13.792;2024-02-14T01:38:52;6.90;;;3.45;;
75603;SDS011;64187;51.010;13.792;2024-02-14T01:43:51;5.72;;;2.65;;
75603;SDS011;64187;51.010;13.792;2024-02-14T01:48:51;4.95;;;3.10;;
75603;SDS011;64187;51.010;13.792;2024-02-14T01:53:51;4.78;;;2.75;;
75603;SDS011;64187;51.010;13.792;2024-02-14T01:58:51;4.90;;;3.05;;
75603;SDS011;64187;51.010;13.792;2024-02-14T02:03:52;6.50;;;2.95;;
75603;SDS011;64187;51.010;13.792;2024-02-14T02:08:51;4.18;;;2.90;;
75603;SDS011;64187;51.010;13.792;2024-02-14T02:13:50;7.65;;;3.30;;
75603;SDS011;64187;51.010;13.792;2024-02-14T02:18:49;4.80;;;3.38;;
75603;SDS011;64187;51.010;13.792;2024-02-14T02:23:49;4.53;;;2.90;;
75603;SDS011;64187;51.010;13.792;2024-02-14T02:28:48;5.22;;;2.85;;
75603;SDS011;64187;51.010;13.792;2024-02-14T02:33:47;4.38;;;3.40;;
75603;SDS011;64187;51.010;13.792;2024-02-14T02:38:46;4.63;;;2.83;;
75603;SDS011;64187;51.010;13.792;2024-02-14T02:43:45;5.78;;;3.33;;
75603;SDS011;64187;51.010;13.792;2024-02-14T02:48:44;4.50;;;2.60;;
75603;SDS011;64187;51.010;13.792;2024-02-14T02:53:46;6.35;;;3.42;;
75603;SDS011;64187;51.010;13.792;2024-02-14T02:58:46;7.32;;;3.85;;
75603;SDS011;64187;51.010;13.792;2024-02-14T03:03:46;5.75;;;3.38;;
75603;SDS011;64187;51.010;13.792;2024-02-14T03:08:46;4.68;;;2.80;;
75603;SDS011;64187;51.010;13.792;2024-02-14T03:13:44;5.95;;;3.22;;
75603;SDS011;64187;51.010;13.792;2024-02-14T03:18:44;6.03;;;3.08;;
75603;SDS011;64187;51.010;13.792;2024-02-14T03:23:43;5.53;;;2.70;;
75603;SDS011;64187;51.010;13.792;2024-02-14T03:28:44;7.85;;;3.28;;
75603;SDS011;64187;51.010;13.792;2024-02-14T03:33:43;5.93;;;3.22;;
75603;SDS011;64187;51.010;13.792;2024-02-14T03:38:43;8.48;;;3.30;;
75603;SDS011;64187;51.010;13.792;2024-02-14T03:43:41;7.55;;;3.33;;
75603;SDS011;64187;51.010;13.792;2024-02-14T03:48:43;6.85;;;3.38;;
75603;SDS011;64187;51.010;13.792;2024-02-14T03:53:42;6.63;;;3.60;;
75603;SDS011;64187;51.010;13.792;2024-02-14T03:58:41;6.25;;;3.35;;
75603;SDS011;64187;51.010;13.792;2024-02-14T04:03:40;7.40;;;3.65;;
75603;SDS011;64187;51.010;13.792;2024-02-14T04:08:39;6.60;;;3.55;;
75603;SDS011;64187;51.010;13.792;2024-02-14T04:13:39;6.20;;;3.60;;
75603;SDS011;64187;51.010;13.792;2024-02-14T04:18:38;8.23;;;3.08;;
75603;SDS011;64187;51.010;13.792;2024-02-14T04:23:37;7.43;;;3.20;;
75603;SDS011;64187;51.010;13.792;2024-02-14T04:28:38;5.07;;;2.80;;
75603;SDS011;64187;51.010;13.792;2024-02-14T04:33:39;7.97;;;3.35;;
75603;SDS011;64187;51.010;13.792;2024-02-14T04:38:38;7.40;;;3.47;;
75603;SDS011;64187;51.010;13.792;2024-02-14T04:43:37;7.55;;;3.75;;
75603;SDS011;64187;51.010;13.792;2024-02-14T04:48:36;7.03;;;3.50;;
75603;SDS011;64187;51.010;13.792;2024-02-14T04:53:36;7.15;;;3.70;;
75603;SDS011;64187;51.010;13.792;2024-02-14T04:58:35;8.85;;;4.10;;
75603;SDS011;64187;51.010;13.792;2024-02-14T05:03:35;6.72;;;3.60;;
75603;SDS011;64187;51.010;13.792;2024-02-14T05:08:35;8.77;;;4.32;;
75603;SDS011;64187;51.010;13.792;2024-02-14T05:13:34;7.82;;;3.92;;
75603;SDS011;64187;51.010;13.792;2024-02-14T05:18:35;8.55;;;3.72;;
75603;SDS011;64187;51.010;13.792;2024-02-14T05:23:34;10.88;;;4.10;;
75603;SDS011;64187;51.010;13.792;2024-02-14T05:28:34;9.52;;;4.13;;
75603;SDS011;64187;51.010;13.792;2024-02-14T05:33:33;9.27;;;3.95;;
75603;SDS011;64187;51.010;13.792;2024-02-14T05:38:32;6.43;;;3.58;;
75603;SDS011;64187;51.010;13.792;2024-02-14T05:43:33;7.80;;;3.78;;
75603;SDS011;64187;51.010;13.792;2024-02-14T05:48:32;9.88;;;4.38;;
75603;SDS011;64187;51.010;13.792;2024-02-14T05:53:31;9.45;;;4.50;;
75603;SDS011;64187;51.010;13.792;2024-02-14T05:58:31;9.27;;;3.88;;
75603;SDS011;64187;51.010;13.792;2024-02-14T06:03:30;8.57;;;4.68;;
75603;SDS011;64187;51.010;13.792;2024-02-14T06:08:29;8.23;;;4.50;;
75603;SDS011;64187;51.010;13.792;2024-02-14T06:13:28;8.98;;;4.40;;
75603;SDS011;64187;51.010;13.792;2024-02-14T06:18:27;7.47;;;4.25;;
75603;SDS011;64187;51.010;13.792;2024-02-14T06:23:26;9.45;;;4.28;;
75603;SDS011;64187;51.010;13.792;2024-02-14T06:28:26;7.57;;;4.05;;
75603;SDS011;64187;51.010;13.792;2024-02-14T06:33:26;10.07;;;4.30;;
75603;SDS011;64187;51.010;13.792;2024-02-14T06:38:25;6.20;;;4.07;;
75603;SDS011;64187;51.010;13.792;2024-02-14T06:43:24;8.07;;;4.20;;
75603;SDS011;64187;51.010;13.792;2024-02-14T06:48:23;9.48;;;3.85;;
75603;SDS011;64187;51.010;13.792;2024-02-14T06:53:23;8.90;;;3.90;;
75603;SDS011;64187;51.010;13.792;2024-02-14T06:58:22;12.10;;;4.85;;
75603;SDS011;64187;51.010;13.792;2024-02-14T07:03:21;6.57;;;3.88;;
75603;SDS011;64187;51.010;13.792;2024-02-14T07:08:20;6.65;;;3.92;;
75603;SDS011;64187;51.010;13.792;2024-02-14T07:13:19;7.72;;;4.50;;
75603;SDS011;64187;51.010;13.792;2024-02-14T07:18:18;9.25;;;4.00;;
75603;SDS011;64187;51.010;13.792;2024-02-14T07:23:18;10.73;;;3.92;;
75603;SDS011;64187;51.010;13.792;2024-02-14T07:28:17;6.05;;;3.55;;
75603;SDS011;64187;51.010;13.792;2024-02-14T07:33:16;7.38;;;4.20;;
75603;SDS011;64187;51.010;13.792;2024-02-14T07:38:15;10.60;;;4.57;;
75603;SDS011;64187;51.010;13.792;2024-02-14T07:43:15;3.60;;;1.13;;
75603;SDS011;64187;51.010;13.792;2024-02-14T07:48:13;7.00;;;3.50;;
75603;SDS011;64187;51.010;13.792;2024-02-14T07:53:13;6.18;;;3.92;;
75603;SDS011;64187;51.010;13.792;2024-02-14T07:58:11;11.50;;;4.47;;
75603;SDS011;64187;51.010;13.792;2024-02-14T08:03:11;8.32;;;4.18;;
75603;SDS011;64187;51.010;13.792;2024-02-14T08:08:10;6.10;;;4.35;;
75603;SDS011;64187;51.010;13.792;2024-02-14T08:13:09;6.18;;;3.58;;
75603;SDS011;64187;51.010;13.792;2024-02-14T08:18:09;15.07;;;4.28;;
75603;SDS011;64187;51.010;13.792;2024-02-14T08:23:09;11.43;;;4.47;;
75603;SDS011;64187;51.010;13.792;2024-02-14T08:28:07;7.28;;;4.45;;
75603;SDS011;64187;51.010;13.792;2024-02-14T08:33:08;6.28;;;3.92;;
75603;SDS011;64187;51.010;13.792;2024-02-14T08:38:07;6.65;;;4.03;;
75603;SDS011;64187;51.010;13.792;2024-02-14T08:43:06;8.00;;;3.60;;
75603;SDS011;64187;51.010;13.792;2024-02-14T08:48:06;7.85;;;3.35;;
75603;SDS011;64187;51.010;13.792;2024-02-14T08:53:05;6.72;;;3.58;;
75603;SDS011;64187;51.010;13.792;2024-02-14T08:58:05;9.82;;;4.32;;
75603;SDS011;64187;51.010;13.792;2024-02-14T09:03:05;9.52;;;4.10;;
75603;SDS011;64187;51.010;13.792;2024-02-14T09:08:05;6.50;;;3.17;;
75603;SDS011;64187;51.010;13.792;2024-02-14T09:13:04;5.47;;;3.45;;
75603;SDS011;64187;51.010;13.792;2024-02-14T09:18:05;6.03;;;3.30;;
75603;SDS011;64187;51.010;13.792;2024-02-14T09:23:04;8.10;;;3.67;;
75603;SDS011;64187;51.010;13.792;2024-02-14T09:28:04;5.53;;;2.70;;
75603;SDS011;64187;51.010;13.792;2024-02-14T09:33:03;7.93;;;4.05;;
75603;SDS011;64187;51.010;13.792;2024-02-14T09:38:03;7.43;;;3.38;;
75603;SDS011;64187;51.010;13.792;2024-02-14T09:43:03;7.70;;;3.33;;
75603;SDS011;64187;51.010;13.792;2024-02-14T09:48:06;7.57;;;5.13;;
75603;SDS011;64187;51.010;13.792;2024-02-14T09:53:07;9.30;;;3.88;;
75603;SDS011;64187;51.010;13.792;2024-02-14T09:58:08;7.38;;;2.83;;
75603;SDS011;64187;51.010;13.792;2024-02-14T10:03:08;6.22;;;3.25;;
75603;SDS011;64187;51.010;13.792;2024-02-14T10:08:07;6.85;;;3.35;;
75603;SDS011;64187;51.010;13.792;2024-02-14T10:13:07;6.05;;;3.53;;
75603;SDS011;64187;51.010;13.792;2024-02-14T10:18:06;6.93;;;2.90;;
75603;SDS011;64187;51.010;13.792;2024-02-14T10:23:08;9.85;;;3.05;;
75603;SDS011;64187;51.010;13.792;2024-02-14T10:28:09;8.77;;;3.08;;
75603;SDS011;64187;51.010;13.792;2024-02-14T10:33:08;7.03;;;3.35;;
75603;SDS011;64187;51.010;13.792;2024-02-14T10:38:22;5.65;;;2.92;;
75603;SDS011;64187;51.010;13.792;2024-02-14T10:43:21;7.30;;;3.42;;
75603;SDS011;64187;51.010;13.792;2024-02-14T10:48:21;6.68;;;3.03;;
75603;SDS011;64187;51.010;13.792;2024-02-14T10:53:25;4.10;;;2.85;;
75603;SDS011;64187;51.010;13.792;2024-02-14T10:58:28;11.15;;;3.67;;
75603;SDS011;64187;51.010;13.792;2024-02-14T11:03:29;7.68;;;3.65;;
75603;SDS011;64187;51.010;13.792;2024-02-14T11:08:29;5.60;;;3.45;;
75603;SDS011;64187;51.010;13.792;2024-02-14T11:13:30;5.50;;;2.72;;
75603;SDS011;64187;51.010;13.792;2024-02-14T11:18:31;4.63;;;2.75;;
75603;SDS011;64187;51.010;13.792;2024-02-14T11:23:32;5.13;;;2.22;;
75603;SDS011;64187;51.010;13.792;2024-02-14T11:28:31;5.68;;;2.50;;
75603;SDS011;64187;51.010;13.792;2024-02-14T11:33:37;8.25;;;2.72;;
75603;SDS011;64187;51.010;13.792;2024-02-14T11:38:36;5.65;;;2.47;;
75603;SDS011;64187;51.010;13.792;2024-02-14T11:43:35;7.20;;;3.20;;
75603;SDS011;64187;51.010;13.792;2024-02-14T11:48:34;6.30;;;3.05;;
75603;SDS011;64187;51.010;13.792;2024-02-14T11:53:38;7.35;;;3.80;;
75603;SDS011;64187;51.010;13.792;2024-02-14T11:58:38;5.97;;;2.95;;
75603;SDS011;64187;51.010;13.792;2024-02-14T12:03:37;6.15;;;3.25;;
75603;SDS011;64187;51.010;13.792;2024-02-14T12:08:37;6.70;;;3.08;;
75603;SDS011;64187;51.010;13.792;2024-02-14T12:13:36;10.52;;;5.13;;
75603;SDS011;64187;51.010;13.792;2024-02-14T12:18:36;11.73;;;5.78;;
75603;SDS011;64187;51.010;13.792;2024-02-14T12:23:35;10.48;;;6.00;;
75603;SDS011;64187;51.010;13.792;2024-02-14T12:28:35;9.80;;;6.22;;
75603;SDS011;64187;51.010;13.792;2024-02-14T12:33:35;11.23;;;6.80;;
75603;SDS011;64187;51.010;13.792;2024-02-14T12:38:35;8.13;;;3.85;;
75603;SDS011;64187;51.010;13.792;2024-02-14T12:43:33;5.95;;;3.28;;
75603;SDS011;64187;51.010;13.792;2024-02-14T12:48:32;7.47;;;3.10;;
75603;SDS011;64187;51.010;13.792;2024-02-14T12:53:31;7.55;;;4.10;;
75603;SDS011;64187;51.010;13.792;2024-02-14T12:58:31;7.55;;;2.85;;
75603;SDS011;64187;51.010;13.792;2024-02-14T13:03:32;6.25;;;3.42;;
75603;SDS011;64187;51.010;13.792;2024-02-14T13:08:32;5.50;;;3.22;;
75603;SDS011;64187;51.010;13.792;2024-02-14T13:13:31;5.25;;;3.30;;
75603;SDS011;64187;51.010;13.792;2024-02-14T13:18:30;6.63;;;3.72;;
75603;SDS011;64187;51.010;13.792;2024-02-14T13:23:30;7.38;;;3.72;;
75603;SDS011;64187;51.010;13.792;2024-02-14T13:28:29;8.88;;;3.97;;
75603;SDS011;64187;51.010;13.792;2024-02-14T13:33:28;9.90;;;3.97;;
75603;SDS011;64187;51.010;13.792;2024-02-14T13:38:27;6.63;;;3.70;;
75603;SDS011;64187;51.010;13.792;2024-02-14T13:43:27;7.95;;;4.38;;
75603;SDS011;64187;51.010;13.792;2024-02-14T13:48:26;9.00;;;4.78;;
75603;SDS011;64187;51.010;13.792;2024-02-14T13:53:25;6.10;;;3.92;;
75603;SDS011;64187;51.010;13.792;2024-02-14T13:58:24;7.18;;;3.90;;
75603;SDS011;64187;51.010;13.792;2024-02-14T14:03:22;8.82;;;3.55;;
75603;SDS011;64187;51.010;13.792;2024-02-14T14:08:22;8.80;;;3.72;;
75603;SDS011;64187;51.010;13.792;2024-02-14T14:13:22;5.20;;;2.13;;
75603;SDS011;64187;51.010;13.792;2024-02-14T14:18:20;2.13;;;1.30;;
75603;SDS011;64187;51.010;13.792;2024-02-14T14:23:20;3.30;;;1.10;;
75603;SDS011;64187;51.010;13.792;2024-02-14T14:28:18;3.05;;;1.00;;
75603;SDS011;64187;51.010;13.792;2024-02-14T14:33:23;1.48;;;0.80;;
75603;SDS011;64187;51.010;13.792;2024-02-14T14:38:24;2.80;;;0.93;;
75603;SDS011;64187;51.010;13.792;2024-02-14T14:43:25;1.95;;;0.60;;
75603;SDS011;64187;51.010;13.792;2024-02-14T14:48:25;2.42;;;0.77;;
75603;SDS011;64187;51.010;13.792;2024-02-14T14:53:24;0.95;;;0.55;;
75603;SDS011;64187;51.010;13.792;2024-02-14T14:58:24;2.92;;;1.00;;
75603;SDS011;64187;51.010;13.792;2024-02-14T15:03:26;1.55;;;0.70;;
75603;SDS011;64187;51.010;13.792;2024-02-14T15:08:25;1.90;;;0.80;;
75603;SDS011;64187;51.010;13.792;2024-02-14T15:13:25;1.17;;;0.77;;
75603;SDS011;64187;51.010;13.792;2024-02-14T15:18:26;1.83;;;0.75;;
75603;SDS011;64187;51.010;13.792;2024-02-14T15:23:25;0.75;;;0.55;;
75603;SDS011;64187;51.010;13.792;2024-02-14T15:28:24;1.25;;;0.75;;
75603;SDS011;64187;51.010;13.792;2024-02-14T15:33:25;1.58;;;0.80;;
75603;SDS011;64187;51.010;13.792;2024-02-14T15:38:27;1.35;;;0.65;;
75603;SDS011;64187;51.010;13.792;2024-02-14T15:43:26;2.22;;;0.80;;
75603;SDS011;64187;51.010;13.792;2024-02-14T15:48:27;3.25;;;1.20;;
75603;SDS011;64187;51.010;13.792;2024-02-14T15:53:29;2.47;;;0.93;;
75603;SDS011;64187;51.010;13.792;2024-02-14T15:58:30;1.10;;;0.73;;
75603;SDS011;64187;51.010;13.792;2024-02-14T16:03:28;1.35;;;0.82;;
75603;SDS011;64187;51.010;13.792;2024-02-14T16:08:27;2.50;;;1.00;;
75603;SDS011;64187;51.010;13.792;2024-02-14T16:13:26;3.60;;;1.05;;
75603;SDS011;64187;51.010;13.792;2024-02-14T16:18:27;1.58;;;0.90;;
75603;SDS011;64187;51.010;13.792;2024-02-14T16:23:26;3.25;;;1.08;;
75603;SDS011;64187;51.010;13.792;2024-02-14T16:28:24;2.97;;;1.33;;
75603;SDS011;64187;51.010;13.792;2024-02-14T16:33:23;2.47;;;1.30;;
75603;SDS011;64187;51.010;13.792;2024-02-14T16:38:22;2.80;;;1.13;;
75603;SDS011;64187;51.010;13.792;2024-02-14T16:43:21;1.35;;;1.00;;
75603;SDS011;64187;51.010;13.792;2024-02-14T16:48:20;1.45;;;1.08;;
75603;SDS011;64187;51.010;13.792;2024-02-14T16:53:20;2.67;;;1.33;;
75603;SDS011;64187;51.010;13.792;2024-02-14T16:58:19;1.73;;;1.42;;
75603;SDS011;64187;51.010;13.792;2024-02-14T17:03:18;1.80;;;1.20;;
75603;SDS011;64187;51.010;13.792;2024-02-14T17:08:20;1.88;;;1.50;;
75603;SDS011;64187;51.010;13.792;2024-02-14T17:13:19;3.63;;;1.20;;
75603;SDS011;64187;51.010;13.792;2024-02-14T17:18:18;3.67;;;2.03;;
75603;SDS011;64187;51.010;13.792;2024-02-14T17:23:17;3.88;;;1.95;;
75603;SDS011;64187;51.010;13.792;2024-02-14T17:28:16;2.97;;;1.35;;
75603;SDS011;64187;51.010;13.792;2024-02-14T17:33:15;5.55;;;3.40;;
75603;SDS011;64187;51.010;13.792;2024-02-14T17:38:14;4.55;;;3.10;;
75603;SDS011;64187;51.010;13.792;2024-02-14T17:43:13;3.55;;;2.22;;
75603;SDS011;64187;51.010;13.792;2024-02-14T17:48:13;5.25;;;2.33;;
75603;SDS011;64187;51.010;13.792;2024-02-14T17:53:12;3.80;;;2.55;;
75603;SDS011;64187;51.010;13.792;2024-02-14T17:58:11;5.55;;;2.80;;
75603;SDS011;64187;51.010;13.792;2024-02-14T18:03:10;5.25;;;2.42;;
75603;SDS011;64187;51.010;13.792;2024-02-14T18:08:09;5.63;;;2.97;;
75603;SDS011;64187;51.010;13.792;2024-02-14T18:13:08;7.43;;;3.75;;
75603;SDS011;64187;51.010;13.792;2024-02-14T18:18:08;7.32;;;3.30;;
75603;SDS011;64187;51.010;13.792;2024-02-14T18:23:07;5.53;;;3.38;;
75603;SDS011;64187;51.010;13.792;2024-02-14T18:28:06;5.60;;;3.83;;
75603;SDS011;64187;51.010;13.792;2024-02-14T18:33:05;5.70;;;3.42;;
75603;SDS011;64187;51.010;13.792;2024-02-14T18:38:10;4.95;;;2.97;;
75603;SDS011;64187;51.010;13.792;2024-02-14T18:43:09;5.25;;;2.60;;
75603;SDS011;64187;51.010;13.792;2024-02-14T18:48:09;4.45;;;2.53;;
75603;SDS011;64187;51.010;13.792;2024-02-14T18:53:10;4.13;;;3.03;;
75603;SDS011;64187;51.010;13.792;2024-02-14T18:58:09;4.72;;;2.65;;
75603;SDS011;64187;51.010;13.792;2024-02-14T19:03:08;4.40;;;2.78;;
75603;SDS011;64187;51.010;13.792;2024-02-14T19:08:06;3.90;;;2.50;;
75603;SDS011;64187;51.010;13.792;2024-02-14T19:13:07;4.05;;;2.88;;
75603;SDS011;64187;51.010;13.792;2024-02-14T19:18:06;6.18;;;3.63;;
75603;SDS011;64187;51.010;13.792;2024-02-14T19:23:06;6.47;;;3.97;;
75603;SDS011;64187;51.010;13.792;2024-02-14T19:28:05;4.80;;;3.10;;
75603;SDS011;64187;51.010;13.792;2024-02-14T19:33:07;5.20;;;3.47;;
75603;SDS011;64187;51.010;13.792;2024-02-14T19:38:06;6.03;;;3.70;;
75603;SDS011;64187;51.010;13.792;2024-02-14T19:43:05;6.85;;;4.70;;
75603;SDS011;64187;51.010;13.792;2024-02-14T19:48:04;7.40;;;4.97;;
75603;SDS011;64187;51.010;13.792;2024-02-14T19:53:04;7.28;;;3.90;;
75603;SDS011;64187;51.010;13.792;2024-02-14T19:58:07;6.07;;;3.63;;
75603;SDS011;64187;51.010;13.792;2024-02-14T20:03:09;6.00;;;3.30;;
75603;SDS011;64187;51.010;13.792;2024-02-14T20:08:09;4.88;;;3.53;;
75603;SDS011;64187;51.010;13.792;2024-02-14T20:13:08;6.32;;;4.22;;
75603;SDS011;64187;51.010;13.792;2024-02-14T20:18:07;7.40;;;4.65;;
75603;SDS011;64187;51.010;13.792;2024-02-14T20:23:08;8.40;;;4.60;;
75603;SDS011;64187;51.010;13.792;2024-02-14T20:28:07;9.25;;;5.97;;
75603;SDS011;64187;51.010;13.792;2024-02-14T20:33:05;8.77;;;5.32;;
75603;SDS011;64187;51.010;13.792;2024-02-14T20:38:05;8.45;;;5.00;;
75603;SDS011;64187;51.010;13.792;2024-02-14T20:43:08;8.70;;;4.85;;
75603;SDS011;64187;51.010;13.792;2024-02-14T20:48:07;9.25;;;5.20;;
75603;SDS011;64187;51.010;13.792;2024-02-14T20:53:06;7.55;;;4.88;;
75603;SDS011;64187;51.010;13.792;2024-02-14T20:58:06;7.20;;;4.60;;
75603;SDS011;64187;51.010;13.792;2024-02-14T21:03:05;8.32;;;4.75;;
75603;SDS011;64187;51.010;13.792;2024-02-14T21:08:04;6.70;;;4.57;;
75603;SDS011;64187;51.010;13.792;2024-02-14T21:13:03;8.23;;;5.25;;
75603;SDS011;64187;51.010;13.792;2024-02-14T21:18:01;7.60;;;5.32;;
75603;SDS011;64187;51.010;13.792;2024-02-14T21:23:01;8.43;;;5.25;;
75603;SDS011;64187;51.010;13.792;2024-02-14T21:28:00;9.02;;;4.85;;
75603;SDS011;64187;51.010;13.792;2024-02-14T21:32:59;6.97;;;5.03;;
75603;SDS011;64187;51.010;13.792;2024-02-14T21:37:59;8.50;;;5.47;;
75603;SDS011;64187;51.010;13.792;2024-02-14T21:42:58;8.43;;;5.10;;
75603;SDS011;64187;51.010;13.792;2024-02-14T21:47:57;9.43;;;5.90;;
75603;SDS011;64187;51.010;13.792;2024-02-14T21:52:59;10.23;;;5.72;;
75603;SDS011;64187;51.010;13.792;2024-02-14T21:57:58;8.70;;;5.28;;
75603;SDS011;64187;51.010;13.792;2024-02-14T22:02:57;7.72;;;5.30;;
75603;SDS011;64187;51.010;13.792;2024-02-14T22:07:56;9.77;;;5.00;;
75603;SDS011;64187;51.010;13.792;2024-02-14T22:12:55;10.73;;;6.25;;
75603;SDS011;64187;51.010;13.792;2024-02-14T22:17:57;9.98;;;4.90;;
75603;SDS011;64187;51.010;13.792;2024-02-14T22:22:56;8.68;;;4.63;;
75603;SDS011;64187;51.010;13.792;2024-02-14T22:27:55;7.70;;;5.20;;
75603;SDS011;64187;51.010;13.792;2024-02-14T22:32:55;8.85;;;5.47;;
75603;SDS011;64187;51.010;13.792;2024-02-14T22:37:54;8.85;;;5.30;;
75603;SDS011;64187;51.010;13.792;2024-02-14T22:42:53;7.03;;;4.80;;
75603;SDS011;64187;51.010;13.792;2024-02-14T22:47:52;10.30;;;6.57;;
75603;SDS011;64187;51.010;13.792;2024-02-14T22:52:51;11.48;;;6.72;;
75603;SDS011;64187;51.010;13.792;2024-02-14T22:57:50;8.85;;;5.57;;
75603;SDS011;64187;51.010;13.792;2024-02-14T23:02:49;8.82;;;6.07;;
75603;SDS011;64187;51.010;13.792;2024-02-14T23:07:48;9.57;;;5.57;;
75603;SDS011;64187;51.010;13.792;2024-02-14T23:12:48;8.30;;;5.85;;
75603;SDS011;64187;51.010;13.792;2024-02-14T23:17:47;8.65;;;5.53;;
75603;SDS011;64187;51.010;13.792;2024-02-14T23:22:46;7.32;;;5.10;;
75603;SDS011;64187;51.010;13.792;2024-02-14T23:27:45;8.45;;;5.10;;
75603;SDS011;64187;51.010;13.792;2024-02-14T23:32:45;9.02;;;5.18;;
75603;SDS011;64187;51.010;13.792;2024-02-14T23:37:45;10.10;;;5.38;;
75603;SDS011;64187;51.010;13.792;2024-02-14T23:42:45;7.03;;;4.95;;
75603;SDS011;64187;51.010;13.792;2024-02-14T23:47:44;9.93;;;6.13;;
75603;SDS011;64187;51.010;13.792;2024-02-14T23:52:43;11.90;;;5.93;;
75603;SDS011;64187;51.010;13.792;2024-02-14T23:57:42;11.88;;;6.00;;
